Time;durP1;ratioP1;P1;durP2;ratioP2;P2;SDS_P1;SDS_P2;PMS_P1;PMS_P2;Temp;Humidity;BMP_temperature;BMP_pressure;BME280_temperature;BME280_humidity;BME280_pressure;Samples;Min_cycle;Max_cycle;Signal;HPM_P1;HPM_P2
2022/01/31 00:00:15;;;;;;;10.93;7.12;;;-5.90;99.90;;;;;;4378992;32;20496;-61
2022/01/31 00:02:44;;;;;;;12.93;7.55;;;-5.70;99.90;;;;;;4378883;32;20073;-61
2022/01/31 00:05:11;;;;;;;11.48;7.10;;;-5.80;99.90;;;;;;4391709;32;20105;-60
2022/01/31 00:07:38;;;;;;;10.30;6.43;;;-5.70;99.90;;;;;;4392912;32;20066;-62
2022/01/31 00:10:09;;;;;;;10.27;6.65;;;-5.70;99.90;;;;;;4367026;32;20147;-62
2022/01/31 00:12:55;;;;;;;10.93;6.25;;;-5.80;99.90;;;;;;4391392;32;20070;-62
2022/01/31 00:15:22;;;;;;;12.55;6.75;;;-5.90;99.90;;;;;;4369278;32;20082;-61
2022/01/31 00:17:48;;;;;;;12.10;7.12;;;-5.80;99.90;;;;;;4378625;32;20085;-61
2022/01/31 00:20:14;;;;;;;11.30;6.95;;;-5.90;99.90;;;;;;4379369;32;20079;-62
2022/01/31 00:22:41;;;;;;;13.20;7.43;;;-5.90;99.90;;;;;;4392951;32;20070;-62
2022/01/31 00:25:08;;;;;;;10.65;6.57;;;-5.80;99.90;;;;;;4391092;32;20119;-61
2022/01/31 00:27:34;;;;;;;11.73;7.45;;;-5.70;99.90;;;;;;4379013;32;20090;-62
2022/01/31 00:30:01;;;;;;;11.93;7.18;;;-5.60;99.90;;;;;;4365857;32;20553;-62
2022/01/31 00:32:29;;;;;;;11.95;7.43;;;-5.60;99.90;;;;;;4366882;32;20094;-62
2022/01/31 00:34:59;;;;;;;12.40;7.28;;;-5.50;99.90;;;;;;4392496;32;20079;-60
2022/01/31 00:37:25;;;;;;;11.38;7.28;;;-5.40;99.90;;;;;;4378742;32;20089;-62
2022/01/31 00:39:52;;;;;;;12.45;7.50;;;-5.30;99.90;;;;;;4390976;32;20086;-61
2022/01/31 00:42:22;;;;;;;13.05;7.72;;;-5.30;99.90;;;;;;4378909;32;20087;-60
2022/01/31 00:44:58;;;;;;;12.73;7.47;;;-5.30;99.90;;;;;;4379432;32;20093;-62
2022/01/31 00:47:27;;;;;;;12.37;7.22;;;-5.30;99.90;;;;;;4390873;32;20085;-62
2022/01/31 00:50:11;;;;;;;12.57;7.35;;;-5.30;99.90;;;;;;4392419;32;20077;-62
2022/01/31 00:52:40;;;;;;;12.43;7.22;;;-5.20;99.90;;;;;;4378332;32;20093;-62
2022/01/31 00:55:10;;;;;;;12.88;7.68;;;-5.30;99.90;;;;;;4378700;32;20512;-61
2022/01/31 00:57:36;;;;;;;12.55;7.43;;;-5.10;99.90;;;;;;4378145;32;20059;-61
2022/01/31 01:00:05;;;;;;;14.75;7.90;;;-5.10;99.90;;;;;;4366395;32;20435;-61
2022/01/31 01:02:32;;;;;;;15.18;8.05;;;-5.20;99.90;;;;;;4390866;32;20062;-62
2022/01/31 01:04:58;;;;;;;13.57;7.68;;;-5.20;99.90;;;;;;4378157;32;20070;-61
2022/01/31 01:07:25;;;;;;;16.30;8.63;;;-5.10;99.90;;;;;;4390532;32;20182;-62
2022/01/31 01:09:51;;;;;;;13.55;8.02;;;-5.20;99.90;;;;;;4366158;32;20076;-63
2022/01/31 01:12:18;;;;;;;14.90;9.52;;;-5.30;99.90;;;;;;4378012;32;20154;-62
2022/01/31 01:14:46;;;;;;;15.32;8.57;;;-5.30;99.90;;;;;;4391902;32;20452;-61
2022/01/31 01:17:13;;;;;;;15.20;8.68;;;-5.20;99.90;;;;;;4390723;32;20069;-61
2022/01/31 01:19:39;;;;;;;14.25;8.75;;;-5.30;99.90;;;;;;4390003;32;20511;-62
2022/01/31 01:22:06;;;;;;;15.85;8.38;;;-5.30;99.90;;;;;;4378071;32;20093;-60
2022/01/31 01:24:32;;;;;;;15.05;8.32;;;-5.20;99.90;;;;;;4377956;32;20171;-61
2022/01/31 01:26:58;;;;;;;14.93;8.43;;;-5.20;99.90;;;;;;4377927;32;20097;-62
2022/01/31 01:29:25;;;;;;;13.60;8.45;;;-5.10;99.90;;;;;;4389930;32;20600;-61
2022/01/31 01:31:52;;;;;;;15.10;8.68;;;-5.20;99.90;;;;;;4391897;32;20073;-62
2022/01/31 01:34:20;;;;;;;16.40;8.90;;;-5.00;99.90;;;;;;4390343;32;20105;-62
2022/01/31 01:36:50;;;;;;;18.00;9.55;;;-4.90;99.90;;;;;;4377848;32;20524;-62
2022/01/31 01:39:16;;;;;;;13.90;8.32;;;-4.80;99.90;;;;;;4378201;32;20179;-63
2022/01/31 01:41:43;;;;;;;17.58;8.95;;;-4.80;99.90;;;;;;4377618;32;20148;-62
2022/01/31 01:44:10;;;;;;;15.52;8.30;;;-4.80;99.90;;;;;;4390754;32;20082;-61
2022/01/31 01:46:37;;;;;;;15.43;8.48;;;-4.70;99.90;;;;;;4377821;32;20085;-61
2022/01/31 01:49:03;;;;;;;14.43;8.13;;;-4.80;99.90;;;;;;4377710;32;20088;-62
2022/01/31 01:51:30;;;;;;;17.98;8.93;;;-4.70;99.90;;;;;;4377891;32;20093;-63
2022/01/31 01:53:59;;;;;;;15.85;8.77;;;-4.70;99.90;;;;;;4390036;32;20073;-62
2022/01/31 01:56:27;;;;;;;14.87;8.23;;;-4.60;99.90;;;;;;4390658;32;20157;-61
2022/01/31 01:58:54;;;;;;;13.45;8.18;;;-4.60;99.90;;;;;;4391562;32;20158;-61
2022/01/31 02:01:20;;;;;;;14.07;8.07;;;-4.70;99.90;;;;;;4389974;32;20066;-61
2022/01/31 02:03:47;;;;;;;14.00;7.97;;;-4.70;99.90;;;;;;4377382;32;20082;-62
2022/01/31 02:06:13;;;;;;;13.52;7.72;;;-4.60;99.90;;;;;;4389778;32;20093;-62
2022/01/31 02:08:44;;;;;;;14.60;8.27;;;-4.60;99.90;;;;;;4391509;32;20515;-62
2022/01/31 02:11:13;;;;;;;14.00;8.48;;;-4.60;99.90;;;;;;4389981;32;20169;-62
2022/01/31 02:13:40;;;;;;;14.15;8.20;;;-4.70;99.90;;;;;;4390131;32;20162;-62
2022/01/31 02:16:09;;;;;;;14.80;8.43;;;-4.80;99.90;;;;;;4390016;32;20073;-62
2022/01/31 02:18:41;;;;;;;14.85;8.80;;;-4.70;99.90;;;;;;4390122;32;20082;-62
2022/01/31 02:21:09;;;;;;;14.15;8.88;;;-4.70;99.90;;;;;;4390876;32;20082;-62
2022/01/31 02:23:35;;;;;;;15.00;8.93;;;-4.70;99.90;;;;;;4391511;32;20070;-62
2022/01/31 02:26:05;;;;;;;15.70;8.68;;;-4.70;99.90;;;;;;4391302;32;20065;-62
2022/01/31 02:28:35;;;;;;;14.40;7.97;;;-4.60;99.90;;;;;;4389971;32;20085;-61
2022/01/31 02:31:04;;;;;;;16.12;9.13;;;-4.60;99.90;;;;;;4365263;32;20105;-62
2022/01/31 02:33:31;;;;;;;15.23;8.50;;;-4.50;99.90;;;;;;4390144;32;20078;-62
2022/01/31 02:36:01;;;;;;;13.75;7.75;;;-4.40;99.90;;;;;;4364917;32;20081;-61
2022/01/31 02:38:28;;;;;;;16.80;9.15;;;-4.40;99.90;;;;;;4364648;32;20158;-63
2022/01/31 02:40:55;;;;;;;12.65;7.78;;;-4.50;99.90;;;;;;4378873;32;20102;-62
2022/01/31 02:43:28;;;;;;;14.90;8.38;;;-4.60;99.90;;;;;;4394115;32;20082;-61
2022/01/31 02:45:54;;;;;;;13.85;8.32;;;-4.60;99.90;;;;;;4392876;32;20525;-61
2022/01/31 02:48:24;;;;;;;16.33;8.68;;;-4.60;99.90;;;;;;4392699;32;20089;-62
2022/01/31 02:50:51;;;;;;;13.07;8.25;;;-4.60;99.90;;;;;;4392630;32;20109;-61
2022/01/31 02:53:24;;;;;;;15.23;8.55;;;-4.60;99.90;;;;;;4392673;32;20078;-60
2022/01/31 02:55:54;;;;;;;14.27;8.73;;;-4.50;99.90;;;;;;4392526;32;20092;-60
2022/01/31 02:58:20;;;;;;;16.12;9.05;;;-4.40;99.90;;;;;;4380479;32;20107;-62
2022/01/31 03:00:48;;;;;;;13.77;7.93;;;-4.40;99.90;;;;;;4380586;32;20077;-62
2022/01/31 03:03:15;;;;;;;13.95;8.30;;;-4.40;99.90;;;;;;4392420;32;20062;-63
2022/01/31 03:05:41;;;;;;;15.18;8.88;;;-4.30;99.90;;;;;;4394249;32;20070;-61
2022/01/31 03:08:08;;;;;;;14.05;8.43;;;-4.30;99.90;;;;;;4394147;32;20151;-61
2022/01/31 03:10:35;;;;;;;13.50;7.85;;;-4.40;99.90;;;;;;4380407;32;20451;-61
2022/01/31 03:13:02;;;;;;;13.75;8.27;;;-4.30;99.90;;;;;;4393822;32;20491;-63
2022/01/31 03:15:29;;;;;;;15.38;8.50;;;-4.30;99.90;;;;;;4379652;32;20070;-62
2022/01/31 03:17:55;;;;;;;15.18;8.43;;;-4.30;99.90;;;;;;4392006;32;20077;-63
2022/01/31 03:20:24;;;;;;;13.27;7.80;;;-4.30;99.90;;;;;;4393567;32;20173;-62
2022/01/31 03:22:51;;;;;;;15.13;9.18;;;-4.30;99.90;;;;;;4379988;32;20082;-62
2022/01/31 03:25:19;;;;;;;14.18;8.73;;;-4.30;99.90;;;;;;4392227;32;20081;-62
2022/01/31 03:27:48;;;;;;;15.50;8.48;;;-4.30;99.90;;;;;;4391864;32;20444;-62
2022/01/31 03:30:23;;;;;;;12.00;8.15;;;-4.20;99.90;;;;;;4379825;32;20516;-63
2022/01/31 03:32:50;;;;;;;15.32;7.93;;;-4.20;99.90;;;;;;4392153;32;20085;-63
2022/01/31 03:35:17;;;;;;;16.15;9.00;;;-4.10;99.90;;;;;;4393604;32;20085;-62
2022/01/31 03:37:44;;;;;;;13.60;8.30;;;-4.10;99.90;;;;;;4380305;32;20078;-60
2022/01/31 03:40:11;;;;;;;12.98;7.93;;;-4.10;99.90;;;;;;4392071;32;20101;-61
2022/01/31 03:42:38;;;;;;;16.17;8.50;;;-4.00;99.90;;;;;;4379369;32;20081;-61
2022/01/31 03:45:07;;;;;;;14.10;8.68;;;-4.00;99.90;;;;;;4391966;32;20514;-62
2022/01/31 03:47:36;;;;;;;12.93;7.87;;;-3.80;99.90;;;;;;4379201;32;20581;-63
2022/01/31 03:50:03;;;;;;;13.02;7.87;;;-3.80;99.90;;;;;;4393214;32;20153;-62
2022/01/31 03:52:29;;;;;;;12.77;7.65;;;-3.80;99.90;;;;;;4378936;32;20090;-61
2022/01/31 03:54:56;;;;;;;12.55;8.02;;;-3.80;99.90;;;;;;4391752;32;20460;-61
2022/01/31 03:57:22;;;;;;;13.32;7.90;;;-3.80;99.90;;;;;;4393496;32;20084;-62
2022/01/31 03:59:48;;;;;;;13.50;7.85;;;-3.70;99.90;;;;;;4391448;32;20113;-61
2022/01/31 04:02:15;;;;;;;12.57;6.85;;;-3.60;99.90;;;;;;4391875;32;20074;-61
2022/01/31 04:04:41;;;;;;;11.77;7.18;;;-3.60;99.90;;;;;;4379082;32;20077;-62
2022/01/31 04:07:08;;;;;;;11.35;6.65;;;-3.60;99.90;;;;;;4391640;32;20077;-61
2022/01/31 04:09:34;;;;;;;13.05;8.20;;;-3.60;99.90;;;;;;4391524;32;20097;-62
2022/01/31 04:12:00;;;;;;;14.38;7.97;;;-3.70;99.90;;;;;;4391259;32;20150;-60
2022/01/31 04:14:27;;;;;;;15.32;8.23;;;-3.90;99.90;;;;;;4392252;32;20073;-60
2022/01/31 04:16:55;;;;;;;14.68;8.85;;;-3.90;99.90;;;;;;4392661;32;20089;-62
2022/01/31 04:19:23;;;;;;;13.38;7.75;;;-3.90;99.90;;;;;;4391212;32;20101;-63
2022/01/31 04:21:50;;;;;;;13.70;7.60;;;-3.90;99.90;;;;;;4391305;32;20062;-62
2022/01/31 04:24:22;;;;;;;12.85;7.90;;;-3.90;99.90;;;;;;4366997;32;20077;-63
2022/01/31 04:26:58;;;;;;;13.85;8.30;;;-3.90;99.90;;;;;;4367008;32;20119;-61
2022/01/31 04:29:27;;;;;;;13.50;8.10;;;-4.00;99.90;;;;;;4392191;32;20059;-62
2022/01/31 04:31:54;;;;;;;12.77;7.55;;;-3.80;99.90;;;;;;4379062;32;20186;-62
2022/01/31 04:34:22;;;;;;;12.85;7.43;;;-3.80;99.90;;;;;;4391181;32;20154;-62
2022/01/31 04:36:49;;;;;;;12.20;7.10;;;-3.70;99.90;;;;;;4391461;32;20065;-61
2022/01/31 04:39:18;;;;;;;12.02;7.37;;;-3.70;99.90;;;;;;4391039;32;20081;-62
2022/01/31 04:41:46;;;;;;;12.57;7.65;;;-3.80;99.90;;;;;;4391022;32;20532;-62
2022/01/31 04:44:13;;;;;;;11.95;7.37;;;-3.70;99.90;;;;;;4378631;32;20078;-61
2022/01/31 04:46:40;;;;;;;10.60;6.25;;;-3.60;99.90;;;;;;4378325;32;20080;-61
2022/01/31 04:49:08;;;;;;;10.63;6.60;;;-3.40;99.90;;;;;;4378706;32;20069;-62
2022/01/31 04:51:34;;;;;;;12.68;7.05;;;-3.20;99.90;;;;;;4378223;32;20077;-61
2022/01/31 04:54:01;;;;;;;10.85;6.68;;;-3.30;99.90;;;;;;4391018;32;20057;-61
2022/01/31 04:56:28;;;;;;;11.70;6.70;;;-3.20;99.90;;;;;;4378377;32;20155;-62
2022/01/31 04:58:54;;;;;;;11.02;6.43;;;-3.30;99.90;;;;;;4391131;32;20097;-61
2022/01/31 05:01:21;;;;;;;11.65;6.65;;;-3.30;99.90;;;;;;4378534;32;20125;-62
2022/01/31 05:03:48;;;;;;;11.12;7.22;;;-3.30;99.90;;;;;;4390319;32;20101;-60
2022/01/31 05:06:17;;;;;;;11.55;6.78;;;-3.20;99.90;;;;;;4390756;32;20077;-62
2022/01/31 05:08:44;;;;;;;10.95;6.35;;;-3.00;99.90;;;;;;4378390;32;20074;-61
2022/01/31 05:11:12;;;;;;;12.20;6.75;;;-2.90;99.90;;;;;;4392250;32;20081;-62
2022/01/31 05:13:38;;;;;;;11.27;6.62;;;-2.80;99.90;;;;;;4390880;32;20085;-63
2022/01/31 05:16:05;;;;;;;11.52;6.30;;;-2.70;99.90;;;;;;4390680;32;20491;-60
2022/01/31 05:18:33;;;;;;;12.35;6.90;;;-2.60;99.90;;;;;;4391762;32;20077;-63
2022/01/31 05:21:00;;;;;;;9.60;5.78;;;-2.40;99.90;;;;;;4390921;32;20109;-62
2022/01/31 05:23:26;;;;;;;9.80;6.18;;;-2.40;99.90;;;;;;4378049;32;20073;-62
2022/01/31 05:25:53;;;;;;;11.27;6.10;;;-2.40;99.90;;;;;;4390321;32;20066;-62
2022/01/31 05:28:19;;;;;;;10.25;6.10;;;-2.40;99.90;;;;;;4390629;32;20161;-61
2022/01/31 05:30:45;;;;;;;9.93;6.32;;;-2.20;99.90;;;;;;4392454;32;20101;-62
2022/01/31 05:33:12;;;;;;;11.65;6.35;;;-2.20;99.90;;;;;;4392272;32;20073;-63
2022/01/31 05:35:38;;;;;;;11.90;6.80;;;-2.10;99.90;;;;;;4391572;32;20096;-62
2022/01/31 05:38:04;;;;;;;10.00;6.20;;;-2.00;99.90;;;;;;4392741;32;20089;-62
2022/01/31 05:40:31;;;;;;;9.98;6.35;;;-1.90;99.90;;;;;;4393750;32;20103;-62
2022/01/31 05:42:58;;;;;;;12.20;6.93;;;-1.90;99.90;;;;;;4392613;32;20089;-62
2022/01/31 05:45:24;;;;;;;10.60;6.47;;;-1.90;99.90;;;;;;4392322;32;20069;-62
2022/01/31 05:47:51;;;;;;;9.80;6.32;;;-1.90;99.90;;;;;;4379341;32;20085;-63
2022/01/31 05:50:18;;;;;;;10.57;6.15;;;-1.90;99.90;;;;;;4391980;32;20082;-62
2022/01/31 05:52:44;;;;;;;11.68;6.82;;;-2.00;99.90;;;;;;4391609;32;20080;-61
2022/01/31 05:55:12;;;;;;;11.40;6.62;;;-1.90;99.90;;;;;;4391044;32;20455;-62
2022/01/31 05:57:39;;;;;;;15.25;8.73;;;-2.00;99.90;;;;;;4390619;32;20070;-62
2022/01/31 06:00:07;;;;;;;12.80;7.82;;;-1.90;99.90;;;;;;4389956;32;20072;-61
2022/01/31 06:02:35;;;;;;;10.82;6.28;;;-1.90;99.90;;;;;;4390096;32;20082;-62
2022/01/31 06:05:03;;;;;;;13.02;7.28;;;-1.90;99.90;;;;;;4365760;32;20579;-62
2022/01/31 06:07:30;;;;;;;13.48;7.68;;;-2.00;99.90;;;;;;4377450;32;20460;-63
2022/01/31 06:09:56;;;;;;;11.05;6.62;;;-2.10;99.90;;;;;;4389957;32;20108;-60
2022/01/31 06:12:23;;;;;;;11.38;7.00;;;-2.10;99.90;;;;;;4377280;32;20070;-62
2022/01/31 06:14:49;;;;;;;12.10;6.85;;;-2.10;99.90;;;;;;4377226;32;20092;-60
2022/01/31 06:17:16;;;;;;;11.90;6.70;;;-2.00;99.90;;;;;;4364974;32;20066;-61
2022/01/31 06:19:42;;;;;;;13.73;7.95;;;-2.00;99.90;;;;;;4376989;32;20089;-61
2022/01/31 06:22:09;;;;;;;12.25;6.65;;;-1.80;99.90;;;;;;4390239;32;20502;-62
2022/01/31 06:24:35;;;;;;;11.18;6.93;;;-1.90;99.90;;;;;;4377672;32;20077;-60
2022/01/31 06:27:02;;;;;;;10.90;6.50;;;-1.90;99.90;;;;;;4391449;32;20078;-61
2022/01/31 06:29:28;;;;;;;13.40;7.70;;;-1.90;99.90;;;;;;4377260;32;20097;-61
2022/01/31 06:31:55;;;;;;;10.85;6.87;;;-1.90;99.90;;;;;;4389933;32;20088;-61
2022/01/31 06:34:21;;;;;;;11.55;6.65;;;-1.90;99.90;;;;;;4389899;32;20069;-61
2022/01/31 06:36:48;;;;;;;10.93;6.50;;;-1.80;99.90;;;;;;4377296;32;20135;-62
2022/01/31 06:39:14;;;;;;;10.43;5.87;;;-1.70;99.90;;;;;;4389478;32;20084;-61
2022/01/31 06:41:41;;;;;;;13.85;7.07;;;-1.80;99.90;;;;;;4377174;32;20517;-60
2022/01/31 06:44:10;;;;;;;11.10;6.57;;;-1.70;99.90;;;;;;4377704;32;20137;-60
2022/01/31 06:46:37;;;;;;;11.57;7.10;;;-1.70;99.90;;;;;;4377129;32;20097;-60
2022/01/31 06:49:03;;;;;;;11.43;6.72;;;-1.60;99.90;;;;;;4389762;32;20090;-60
2022/01/31 06:51:30;;;;;;;11.45;6.82;;;-1.60;99.90;;;;;;4364956;32;20081;-61
2022/01/31 06:53:59;;;;;;;12.30;6.53;;;-1.60;99.90;;;;;;4391095;32;20089;-61
2022/01/31 06:56:30;;;;;;;9.88;5.75;;;-1.60;99.90;;;;;;4389441;32;20085;-60
2022/01/31 06:58:57;;;;;;;11.93;7.35;;;-1.60;99.90;;;;;;4389571;32;20155;-61
2022/01/31 07:01:25;;;;;;;11.40;7.20;;;-1.40;99.90;;;;;;4390056;32;20432;-63
2022/01/31 07:03:54;;;;;;;11.43;7.10;;;-1.50;99.90;;;;;;4377167;32;20182;-62
2022/01/31 07:06:24;;;;;;;12.35;7.30;;;-1.50;99.90;;;;;;4389586;32;20092;-62
2022/01/31 07:08:51;;;;;;;12.10;7.20;;;-1.40;99.90;;;;;;4389323;32;20576;-62
2022/01/31 07:11:23;;;;;;;12.37;6.95;;;-1.30;99.90;;;;;;4376775;32;20070;-62
2022/01/31 07:14:00;;;;;;;11.98;6.82;;;-1.60;99.90;;;;;;4378053;32;20081;-62
2022/01/31 07:16:27;;;;;;;11.63;6.40;;;-1.50;99.90;;;;;;4378321;32;20065;-61
2022/01/31 07:19:01;;;;;;;12.60;7.85;;;-1.50;99.90;;;;;;4390606;32;20164;-63
2022/01/31 07:21:34;;;;;;;12.70;7.15;;;-1.40;99.90;;;;;;4389362;32;20106;-62
2022/01/31 07:24:21;;;;;;;14.05;7.75;;;-1.40;99.90;;;;;;4376985;32;20528;-62
2022/01/31 07:26:48;;;;;;;13.35;7.47;;;-1.40;99.90;;;;;;4390584;32;20522;-63
2022/01/31 07:29:17;;;;;;;11.18;7.10;;;-1.20;99.90;;;;;;4392441;32;20081;-62
2022/01/31 07:31:45;;;;;;;11.75;7.50;;;-1.30;99.90;;;;;;4392226;32;20153;-63
2022/01/31 07:34:14;;;;;;;10.48;5.57;;;-1.40;99.90;;;;;;4379420;32;20089;-62
2022/01/31 07:36:42;;;;;;;12.25;7.35;;;-1.70;99.90;;;;;;4391955;32;20136;-62
2022/01/31 07:39:09;;;;;;;10.65;6.95;;;-1.60;99.90;;;;;;4391697;32;20070;-62
2022/01/31 07:41:35;;;;;;;11.25;6.07;;;-1.50;99.90;;;;;;4391755;32;20074;-61
2022/01/31 07:44:01;;;;;;;12.05;7.62;;;-1.60;99.90;;;;;;4392014;32;20147;-61
2022/01/31 07:46:28;;;;;;;10.23;6.12;;;-1.50;99.90;;;;;;4391959;32;20093;-62
2022/01/31 07:48:55;;;;;;;10.85;6.25;;;-1.60;99.90;;;;;;4392077;32;20178;-62
2022/01/31 07:51:24;;;;;;;11.60;6.93;;;-1.60;99.90;;;;;;4391738;32;20513;-62
2022/01/31 07:53:50;;;;;;;9.93;6.87;;;-1.50;99.90;;;;;;4367240;32;20103;-62
2022/01/31 07:56:18;;;;;;;11.48;7.55;;;-1.30;99.90;;;;;;4379616;32;20081;-61
2022/01/31 07:58:44;;;;;;;11.43;6.22;;;-1.30;99.90;;;;;;4392379;32;20077;-62
2022/01/31 08:01:11;;;;;;;11.30;7.50;;;-1.30;99.90;;;;;;4392931;32;20066;-62
2022/01/31 08:03:37;;;;;;;10.15;6.22;;;-1.20;99.90;;;;;;4391752;32;20078;-63
2022/01/31 08:06:04;;;;;;;9.77;6.12;;;-1.30;99.90;;;;;;4379204;32;20069;-62
2022/01/31 08:08:31;;;;;;;9.00;5.90;;;-1.20;99.90;;;;;;4393175;32;20081;-61
2022/01/31 08:10:58;;;;;;;10.07;6.20;;;-1.20;99.90;;;;;;4379026;32;20164;-63
2022/01/31 08:13:25;;;;;;;8.70;5.53;;;-1.10;99.90;;;;;;4378880;32;20111;-62
2022/01/31 08:16:27;;;;;;;9.27;6.22;;;-1.30;99.90;;;;;;4391313;32;20072;-61
2022/01/31 08:18:48;;;;;;;9.70;5.80;;;-1.10;99.90;;;;;;4388636;32;20081;-61
2022/01/31 08:21:15;;;;;;;8.75;5.97;;;-1.10;99.90;;;;;;4379807;32;20124;-61
2022/01/31 08:23:43;;;;;;;9.10;5.47;;;-0.60;99.90;;;;;;4378633;32;20086;-61
2022/01/31 08:26:15;;;;;;;9.32;5.87;;;-0.70;99.90;;;;;;4378454;32;20077;-62
2022/01/31 08:29:16;;;;;;;9.60;5.43;;;-0.80;99.90;;;;;;4391198;32;20078;-61
2022/01/31 08:31:43;;;;;;;8.52;5.50;;;-1.00;99.90;;;;;;4380577;32;20058;-61
2022/01/31 08:36:43;;;;;;;9.77;5.87;;;-1.00;99.90;;;;;;4392333;32;20244;-62
2022/01/31 08:39:17;;;;;;;8.95;5.50;;;-1.00;99.90;;;;;;4392365;32;20119;-61
2022/01/31 08:41:51;;;;;;;8.52;5.43;;;-1.00;99.90;;;;;;4390979;32;20528;-61
2022/01/31 08:44:20;;;;;;;9.38;6.25;;;-0.90;99.90;;;;;;4391587;32;20162;-62
2022/01/31 08:46:48;;;;;;;8.73;5.60;;;-1.00;99.90;;;;;;4391044;32;20143;-62
2022/01/31 08:49:16;;;;;;;10.32;5.78;;;-1.00;99.90;;;;;;4378136;32;20070;-62
2022/01/31 08:51:44;;;;;;;8.75;5.93;;;-0.70;99.90;;;;;;4392102;32;20496;-62
2022/01/31 08:54:12;;;;;;;7.43;4.97;;;-0.90;99.90;;;;;;4392394;32;20082;-62
2022/01/31 08:56:43;;;;;;;7.20;4.80;;;-1.10;99.90;;;;;;4392319;32;20096;-61
2022/01/31 08:59:15;;;;;;;6.65;4.22;;;-1.00;99.90;;;;;;4390738;32;20158;-62
2022/01/31 09:01:43;;;;;;;6.95;4.72;;;-0.90;99.90;;;;;;4365804;32;20433;-62
2022/01/31 09:04:12;;;;;;;8.27;5.68;;;-0.80;99.90;;;;;;4391353;32;20488;-62
2022/01/31 09:06:39;;;;;;;6.87;4.75;;;-0.90;99.90;;;;;;4390383;32;20078;-62
2022/01/31 09:09:08;;;;;;;7.05;4.47;;;-0.70;99.90;;;;;;4390364;32;20520;-62
2022/01/31 09:11:37;;;;;;;6.30;4.45;;;-1.00;99.90;;;;;;4378369;32;20181;-62
2022/01/31 09:14:04;;;;;;;6.60;4.30;;;-1.00;99.90;;;;;;4377761;32;20149;-62
2022/01/31 09:16:30;;;;;;;6.03;3.78;;;-0.70;99.90;;;;;;4390334;32;20610;-62
2022/01/31 09:18:57;;;;;;;6.28;4.20;;;-0.50;99.90;;;;;;4389790;32;20194;-62
2022/01/31 09:21:23;;;;;;;6.30;4.22;;;-0.80;99.90;;;;;;4377720;32;20147;-61
2022/01/31 09:23:52;;;;;;;7.00;4.30;;;-0.80;99.90;;;;;;4390235;32;20073;-62
2022/01/31 09:26:24;;;;;;;6.57;4.20;;;-0.90;99.90;;;;;;4390376;32;20097;-61
2022/01/31 09:28:52;;;;;;;6.97;4.55;;;-0.80;99.90;;;;;;4389813;32;20467;-62
2022/01/31 09:31:20;;;;;;;7.40;4.72;;;-0.80;99.90;;;;;;4390206;32;20556;-62
2022/01/31 09:33:48;;;;;;;6.55;4.20;;;-0.90;99.90;;;;;;4390468;32;20154;-61
2022/01/31 09:36:14;;;;;;;5.78;4.10;;;-0.90;99.90;;;;;;4378314;32;20508;-62
2022/01/31 09:38:42;;;;;;;7.95;4.30;;;-0.80;99.90;;;;;;4390639;32;20070;-61
2022/01/31 09:41:12;;;;;;;7.25;4.97;;;-0.80;99.90;;;;;;4377411;32;20080;-61
2022/01/31 09:44:00;;;;;;;7.15;5.12;;;-0.60;99.90;;;;;;4378294;32;20073;-62
2022/01/31 09:48:56;;;;;;;8.52;5.55;;;-0.90;99.90;;;;;;4390403;32;20145;-61
2022/01/31 09:51:26;;;;;;;7.97;4.93;;;-1.00;99.90;;;;;;4377277;32;20085;-62
2022/01/31 09:53:59;;;;;;;7.35;4.87;;;-0.90;99.90;;;;;;4390157;32;20105;-62
2022/01/31 09:56:32;;;;;;;7.53;5.03;;;-1.00;99.90;;;;;;4390079;32;20096;-62
2022/01/31 09:58:59;;;;;;;8.00;4.50;;;-1.10;99.90;;;;;;4377794;32;20069;-62
2022/01/31 10:01:30;;;;;;;6.10;4.43;;;-1.00;99.90;;;;;;4377329;32;20092;-62
2022/01/31 10:04:18;;;;;;;7.93;4.90;;;-1.00;99.90;;;;;;4391368;32;20070;-63
2022/01/31 10:06:54;;;;;;;7.12;4.35;;;-0.80;99.90;;;;;;4390665;32;20078;-62
2022/01/31 10:09:30;;;;;;;7.00;5.05;;;-0.90;99.90;;;;;;4389696;32;20477;-63
2022/01/31 10:12:06;;;;;;;8.25;4.65;;;-1.00;99.90;;;;;;4389572;32;20061;-61
2022/01/31 10:17:45;;;;;;;6.60;4.43;;;-1.00;99.90;;;;;;4379660;32;20161;-61
2022/01/31 10:20:29;;;;;;;7.20;4.37;;;-1.10;99.90;;;;;;4364443;32;20074;-61
2022/01/31 10:23:25;;;;;;;5.78;4.30;;;-0.80;99.90;;;;;;4389529;32;20081;-60
2022/01/31 10:25:52;;;;;;;6.57;4.30;;;-0.90;99.90;;;;;;4376752;32;20527;-63
2022/01/31 10:28:20;;;;;;;5.95;3.78;;;-1.00;99.90;;;;;;4364776;32;20082;-60
2022/01/31 10:30:51;;;;;;;5.90;4.05;;;-0.90;99.90;;;;;;4377104;32;20151;-63
2022/01/31 10:33:18;;;;;;;5.28;3.97;;;-0.80;99.90;;;;;;4377950;32;20076;-61
2022/01/31 10:35:45;;;;;;;5.90;4.10;;;-0.90;99.90;;;;;;4377166;32;20101;-63
2022/01/31 10:38:16;;;;;;;6.37;4.25;;;-0.70;99.90;;;;;;4377098;32;20478;-62
2022/01/31 10:52:03;;;;;;;4.18;3.30;;;-0.70;99.90;;;;;;4389885;32;20596;-61
2022/01/31 10:57:07;;;;;;;3.90;3.03;;;-0.70;99.90;;;;;;4376942;32;20097;-63
2022/01/31 10:59:43;;;;;;;4.78;3.35;;;-0.80;99.90;;;;;;4376876;32;20078;-60
2022/01/31 11:02:18;;;;;;;4.60;3.33;;;-0.60;99.90;;;;;;4391012;32;20082;-61
2022/01/31 11:04:49;;;;;;;5.82;3.22;;;-0.90;99.90;;;;;;4379964;32;20085;-61
2022/01/31 11:07:23;;;;;;;4.45;3.20;;;-0.80;99.90;;;;;;4391750;32;20114;-58
2022/01/31 11:09:51;;;;;;;3.78;2.92;;;-0.70;99.90;;;;;;4388326;32;20168;-67
2022/01/31 11:12:24;;;;;;;5.03;3.05;;;-0.80;99.90;;;;;;4375149;32;20082;-69
2022/01/31 11:14:53;;;;;;;3.60;2.90;;;-0.90;99.90;;;;;;4389659;32;20092;-69
2022/01/31 11:17:20;;;;;;;3.53;2.33;;;-1.00;99.90;;;;;;4367398;32;20113;-69
2022/01/31 11:19:57;;;;;;;4.20;2.97;;;-1.20;99.90;;;;;;4392930;32;20459;-68
2022/01/31 11:22:35;;;;;;;3.62;2.28;;;-1.10;99.90;;;;;;4391352;32;20087;-68
2022/01/31 11:25:08;;;;;;;3.60;2.67;;;-1.20;99.90;;;;;;4380912;32;20069;-68
2022/01/31 11:27:37;;;;;;;3.35;2.70;;;-1.10;99.90;;;;;;4366982;32;20098;-69
2022/01/31 11:30:06;;;;;;;3.97;2.83;;;-1.10;99.90;;;;;;4378818;32;20452;-66
2022/01/31 11:32:33;;;;;;;3.60;2.72;;;-1.20;99.90;;;;;;4379583;32;20194;-67
2022/01/31 11:34:59;;;;;;;4.57;2.40;;;-1.30;99.90;;;;;;4391742;32;20104;-67
2022/01/31 11:37:26;;;;;;;3.67;2.67;;;-1.20;99.90;;;;;;4379590;32;20158;-70
2022/01/31 11:39:58;;;;;;;3.30;2.67;;;-1.30;99.90;;;;;;4391264;32;20089;-67
2022/01/31 11:42:25;;;;;;;3.70;2.83;;;-1.40;99.90;;;;;;4391811;32;20108;-67
2022/01/31 11:45:19;;;;;;;3.60;2.60;;;-1.40;99.90;;;;;;4378896;32;20097;-66
2022/01/31 11:47:49;;;;;;;2.80;2.33;;;-1.40;99.90;;;;;;4391357;32;20154;-70
2022/01/31 11:50:18;;;;;;;4.30;2.55;;;-1.50;99.90;;;;;;4379264;32;20085;-68
2022/01/31 11:52:48;;;;;;;3.35;2.70;;;-1.40;99.90;;;;;;4378811;32;20158;-66
2022/01/31 11:55:21;;;;;;;4.12;2.70;;;-1.30;99.90;;;;;;4379297;32;20568;-67
2022/01/31 11:57:51;;;;;;;4.00;2.80;;;-1.40;99.90;;;;;;4392653;32;20070;-68
2022/01/31 12:00:22;;;;;;;3.03;2.30;;;-1.20;99.90;;;;;;4377274;32;20172;-69
2022/01/31 12:03:02;;;;;;;3.47;2.97;;;-1.30;99.90;;;;;;4363042;32;20089;-65
2022/01/31 12:05:33;;;;;;;3.78;2.60;;;-1.40;99.90;;;;;;4376457;32;20098;-65
2022/01/31 12:08:07;;;;;;;3.12;2.60;;;-1.20;99.90;;;;;;4350740;32;20082;-66
2022/01/31 12:10:39;;;;;;;4.25;2.78;;;-1.40;99.90;;;;;;4374692;32;20157;-66
2022/01/31 12:13:36;;;;;;;3.62;2.58;;;-1.20;99.90;;;;;;4378210;32;20085;-67
2022/01/31 12:16:23;;;;;;;3.90;2.67;;;-1.20;99.90;;;;;;4392863;32;20530;-66
2022/01/31 12:24:42;;;;;;;3.42;2.53;;;-1.20;99.90;;;;;;4390968;32;20085;-70
2022/01/31 12:27:17;;;;;;;3.00;2.40;;;-1.00;99.90;;;;;;4379158;32;20079;-65
2022/01/31 12:29:57;;;;;;;3.22;2.55;;;-1.10;99.90;;;;;;4390708;32;20158;-68
2022/01/31 12:32:37;;;;;;;3.55;2.60;;;-1.10;99.90;;;;;;4391279;32;20519;-65
2022/01/31 12:35:13;;;;;;;3.10;2.55;;;-1.00;99.90;;;;;;4390213;32;20103;-71
2022/01/31 12:37:42;;;;;;;2.72;2.35;;;-1.10;99.90;;;;;;4391582;32;20239;-68
2022/01/31 12:40:27;;;;;;;2.60;2.30;;;-1.10;99.90;;;;;;4391041;32;20097;-67
2022/01/31 12:43:11;;;;;;;3.40;2.45;;;-0.90;99.90;;;;;;4378050;32;20443;-63
2022/01/31 12:45:38;;;;;;;4.03;2.50;;;-1.00;99.90;;;;;;4392827;32;20073;-67
2022/01/31 12:48:21;;;;;;;3.10;2.60;;;-1.10;99.90;;;;;;4390782;32;20592;-67
2022/01/31 12:50:58;;;;;;;2.97;2.40;;;-1.10;99.90;;;;;;4390527;32;20073;-69
2022/01/31 12:53:36;;;;;;;3.12;2.30;;;-1.10;99.90;;;;;;4389748;32;20459;-70
2022/01/31 12:56:26;;;;;;;2.92;2.17;;;-1.20;99.90;;;;;;4378227;32;20223;-68
2022/01/31 12:59:05;;;;;;;2.47;2.20;;;-1.20;99.90;;;;;;4365234;32;20078;-69
2022/01/31 13:01:45;;;;;;;3.28;2.33;;;-1.20;99.90;;;;;;4390240;32;20162;-69
2022/01/31 13:04:19;;;;;;;3.05;2.42;;;;;;;;;;4365776;32;20097;-64
2022/01/31 13:06:51;;;;;;;3.15;2.22;;;;;;;;;;4378744;32;20073;-70
2022/01/31 13:09:21;;;;;;;2.60;2.30;;;;;;;;;;4385873;32;20553;-66
2022/01/31 13:12:04;;;;;;;3.72;2.55;;;;;;;;;;4375106;32;20094;-65
2022/01/31 13:14:32;;;;;;;2.58;2.20;;;;;;;;;;4362786;32;20471;-65
2022/01/31 13:17:10;;;;;;;2.40;2.20;;;;;;;;;;4374830;32;20507;-66
2022/01/31 13:19:48;;;;;;;3.67;2.30;;;;;;;;;;4363022;32;20090;-67
2022/01/31 13:22:30;;;;;;;4.47;2.37;;;;;;;;;;4375656;32;20078;-66